sensor_id;sensor_type;location;lat;lon;timestamp;temperature;humidity
43607;DHT22;29197;44.788;10.366;2023-08-06T00:00:28;22.00;99.90
43607;DHT22;29197;44.788;10.366;2023-08-06T00:03:18;22.10;99.90
43607;DHT22;29197;44.788;10.366;2023-08-06T00:06:07;22.10;99.90
43607;DHT22;29197;44.788;10.366;2023-08-06T00:08:55;22.10;99.90
43607;DHT22;29197;44.788;10.366;2023-08-06T00:11:44;22.20;99.90
43607;DHT22;29197;44.788;10.366;2023-08-06T00:14:34;22.20;99.90
43607;DHT22;29197;44.788;10.366;2023-08-06T00:17:22;22.30;99.90
43607;DHT22;29197;44.788;10.366;2023-08-06T00:20:12;22.20;99.90
43607;DHT22;29197;44.788;10.366;2023-08-06T00:23:01;22.10;99.90
43607;DHT22;29197;44.788;10.366;2023-08-06T00:25:50;22.00;99.90
43607;DHT22;29197;44.788;10.366;2023-08-06T00:28:38;22.00;99.90
43607;DHT22;29197;44.788;10.366;2023-08-06T00:31:27;21.90;99.90
43607;DHT22;29197;44.788;10.366;2023-08-06T00:34:16;21.80;99.90
43607;DHT22;29197;44.788;10.366;2023-08-06T00:37:06;21.70;99.90
43607;DHT22;29197;44.788;10.366;2023-08-06T00:39:54;21.70;99.90
43607;DHT22;29197;44.788;10.366;2023-08-06T00:42:43;21.70;99.90
43607;DHT22;29197;44.788;10.366;2023-08-06T00:45:35;21.70;99.90
43607;DHT22;29197;44.788;10.366;2023-08-06T00:48:24;21.60;99.90
43607;DHT22;29197;44.788;10.366;2023-08-06T00:51:13;21.50;99.90
43607;DHT22;29197;44.788;10.366;2023-08-06T00:54:03;21.40;99.90
43607;DHT22;29197;44.788;10.366;2023-08-06T00:56:51;21.40;99.90
43607;DHT22;29197;44.788;10.366;2023-08-06T00:59:40;21.50;99.90
43607;DHT22;29197;44.788;10.366;2023-08-06T01:02:28;21.50;99.90
43607;DHT22;29197;44.788;10.366;2023-08-06T01:05:17;21.50;99.90
43607;DHT22;29197;44.788;10.366;2023-08-06T01:08:15;21.30;99.90
43607;DHT22;29197;44.788;10.366;2023-08-06T01:11:21;21.20;99.90
43607;DHT22;29197;44.788;10.366;2023-08-06T01:14:18;21.30;99.90
43607;DHT22;29197;44.788;10.366;2023-08-06T01:17:09;21.50;99.90
43607;DHT22;29197;44.788;10.366;2023-08-06T01:19:58;21.70;99.90
43607;DHT22;29197;44.788;10.366;2023-08-06T01:22:48;21.80;99.90
43607;DHT22;29197;44.788;10.366;2023-08-06T01:25:41;22.00;99.90
43607;DHT22;29197;44.788;10.366;2023-08-06T01:28:37;22.10;99.90
43607;DHT22;29197;44.788;10.366;2023-08-06T01:31:31;22.10;99.90
43607;DHT22;29197;44.788;10.366;2023-08-06T01:34:21;22.10;99.90
43607;DHT22;29197;44.788;10.366;2023-08-06T01:37:11;21.90;99.90
43607;DHT22;29197;44.788;10.366;2023-08-06T01:40:05;21.80;99.90
43607;DHT22;29197;44.788;10.366;2023-08-06T01:42:53;21.70;99.90
43607;DHT22;29197;44.788;10.366;2023-08-06T01:45:42;21.50;99.90
43607;DHT22;29197;44.788;10.366;2023-08-06T01:48:30;21.40;99.90
43607;DHT22;29197;44.788;10.366;2023-08-06T01:51:19;21.40;99.90
43607;DHT22;29197;44.788;10.366;2023-08-06T01:54:07;21.40;99.90
43607;DHT22;29197;44.788;10.366;2023-08-06T01:56:57;21.40;99.90
43607;DHT22;29197;44.788;10.366;2023-08-06T01:59:46;21.50;99.90
43607;DHT22;29197;44.788;10.366;2023-08-06T02:02:35;21.60;99.90
43607;DHT22;29197;44.788;10.366;2023-08-06T02:05:24;21.70;99.90
43607;DHT22;29197;44.788;10.366;2023-08-06T02:08:12;21.80;99.90
43607;DHT22;29197;44.788;10.366;2023-08-06T02:11:01;21.90;99.90
43607;DHT22;29197;44.788;10.366;2023-08-06T02:13:51;22.00;99.90
43607;DHT22;29197;44.788;10.366;2023-08-06T02:16:39;22.10;99.90
43607;DHT22;29197;44.788;10.366;2023-08-06T02:19:28;22.20;99.90
43607;DHT22;29197;44.788;10.366;2023-08-06T02:22:17;22.20;99.90
43607;DHT22;29197;44.788;10.366;2023-08-06T02:25:06;22.20;99.90
43607;DHT22;29197;44.788;10.366;2023-08-06T02:27:54;22.20;99.90
43607;DHT22;29197;44.788;10.366;2023-08-06T02:30:51;22.10;99.90
43607;DHT22;29197;44.788;10.366;2023-08-06T02:33:39;22.00;99.90
43607;DHT22;29197;44.788;10.366;2023-08-06T02:36:28;22.00;99.90
43607;DHT22;29197;44.788;10.366;2023-08-06T02:39:16;22.10;99.90
43607;DHT22;29197;44.788;10.366;2023-08-06T02:42:06;22.10;99.90
43607;DHT22;29197;44.788;10.366;2023-08-06T02:44:54;22.20;99.90
43607;DHT22;29197;44.788;10.366;2023-08-06T02:47:44;22.20;99.90
43607;DHT22;29197;44.788;10.366;2023-08-06T02:50:38;22.30;99.90
43607;DHT22;29197;44.788;10.366;2023-08-06T02:53:27;22.30;99.90
43607;DHT22;29197;44.788;10.366;2023-08-06T02:56:16;22.30;99.90
43607;DHT22;29197;44.788;10.366;2023-08-06T02:59:04;22.30;99.90
43607;DHT22;29197;44.788;10.366;2023-08-06T03:01:53;22.20;99.90
43607;DHT22;29197;44.788;10.366;2023-08-06T03:04:43;22.20;99.90
43607;DHT22;29197;44.788;10.366;2023-08-06T03:07:31;22.20;99.90
43607;DHT22;29197;44.788;10.366;2023-08-06T03:10:23;22.20;99.90
43607;DHT22;29197;44.788;10.366;2023-08-06T03:13:11;22.20;99.90
43607;DHT22;29197;44.788;10.366;2023-08-06T03:16:00;22.10;99.90
43607;DHT22;29197;44.788;10.366;2023-08-06T03:18:48;22.10;99.90
43607;DHT22;29197;44.788;10.366;2023-08-06T03:21:38;22.00;99.90
43607;DHT22;29197;44.788;10.366;2023-08-06T03:24:27;22.00;99.90
43607;DHT22;29197;44.788;10.366;2023-08-06T03:27:15;22.00;99.90
43607;DHT22;29197;44.788;10.366;2023-08-06T03:30:05;22.00;99.90
43607;DHT22;29197;44.788;10.366;2023-08-06T03:32:54;22.00;99.90
43607;DHT22;29197;44.788;10.366;2023-08-06T03:35:42;22.00;99.90
43607;DHT22;29197;44.788;10.366;2023-08-06T03:38:32;22.10;99.90
43607;DHT22;29197;44.788;10.366;2023-08-06T03:41:21;22.10;99.90
43607;DHT22;29197;44.788;10.366;2023-08-06T03:44:09;22.10;99.90
43607;DHT22;29197;44.788;10.366;2023-08-06T03:46:58;21.90;99.90
43607;DHT22;29197;44.788;10.366;2023-08-06T03:49:47;21.80;99.90
43607;DHT22;29197;44.788;10.366;2023-08-06T03:52:36;21.80;99.90
43607;DHT22;29197;44.788;10.366;2023-08-06T03:55:26;21.80;99.90
43607;DHT22;29197;44.788;10.366;2023-08-06T03:58:15;21.70;99.90
43607;DHT22;29197;44.788;10.366;2023-08-06T04:01:03;21.70;99.90
43607;DHT22;29197;44.788;10.366;2023-08-06T04:03:52;21.70;99.90
43607;DHT22;29197;44.788;10.366;2023-08-06T04:06:41;21.40;99.90
43607;DHT22;29197;44.788;10.366;2023-08-06T04:09:29;21.30;99.90
43607;DHT22;29197;44.788;10.366;2023-08-06T04:12:19;21.10;99.90
43607;DHT22;29197;44.788;10.366;2023-08-06T04:15:09;21.00;99.90
43607;DHT22;29197;44.788;10.366;2023-08-06T04:17:58;21.00;99.90
43607;DHT22;29197;44.788;10.366;2023-08-06T04:20:46;21.10;99.90
43607;DHT22;29197;44.788;10.366;2023-08-06T04:23:36;21.10;99.90
43607;DHT22;29197;44.788;10.366;2023-08-06T04:26:25;21.10;99.90
43607;DHT22;29197;44.788;10.366;2023-08-06T04:29:15;21.00;99.90
43607;DHT22;29197;44.788;10.366;2023-08-06T04:32:05;21.10;99.90
43607;DHT22;29197;44.788;10.366;2023-08-06T04:34:55;21.20;99.90
43607;DHT22;29197;44.788;10.366;2023-08-06T04:37:44;21.20;99.90
43607;DHT22;29197;44.788;10.366;2023-08-06T04:40:33;21.00;99.90
43607;DHT22;29197;44.788;10.366;2023-08-06T04:43:22;20.70;99.90
43607;DHT22;29197;44.788;10.366;2023-08-06T04:46:12;20.70;99.90
43607;DHT22;29197;44.788;10.366;2023-08-06T04:49:00;20.60;99.90
43607;DHT22;29197;44.788;10.366;2023-08-06T04:51:49;20.60;99.90
43607;DHT22;29197;44.788;10.366;2023-08-06T04:54:38;20.70;99.90
43607;DHT22;29197;44.788;10.366;2023-08-06T04:57:27;20.80;99.90
43607;DHT22;29197;44.788;10.366;2023-08-06T05:00:15;20.80;99.90
43607;DHT22;29197;44.788;10.366;2023-08-06T05:03:06;20.90;99.90
43607;DHT22;29197;44.788;10.366;2023-08-06T05:05:54;21.00;99.90
43607;DHT22;29197;44.788;10.366;2023-08-06T05:08:43;21.00;99.90
43607;DHT22;29197;44.788;10.366;2023-08-06T05:11:32;21.00;99.90
43607;DHT22;29197;44.788;10.366;2023-08-06T05:14:20;21.00;99.90
43607;DHT22;29197;44.788;10.366;2023-08-06T05:17:09;21.20;99.90
43607;DHT22;29197;44.788;10.366;2023-08-06T05:19:59;21.30;99.90
43607;DHT22;29197;44.788;10.366;2023-08-06T05:22:47;21.40;99.90
43607;DHT22;29197;44.788;10.366;2023-08-06T05:25:36;21.50;99.90
43607;DHT22;29197;44.788;10.366;2023-08-06T05:28:25;21.70;99.90
43607;DHT22;29197;44.788;10.366;2023-08-06T05:31:13;21.70;99.90
43607;DHT22;29197;44.788;10.366;2023-08-06T05:34:02;21.60;99.90
43607;DHT22;29197;44.788;10.366;2023-08-06T05:36:52;21.60;99.90
43607;DHT22;29197;44.788;10.366;2023-08-06T05:39:41;21.70;99.90
43607;DHT22;29197;44.788;10.366;2023-08-06T05:42:29;21.70;99.90
43607;DHT22;29197;44.788;10.366;2023-08-06T05:45:18;21.80;99.90
43607;DHT22;29197;44.788;10.366;2023-08-06T05:48:06;21.80;99.90
43607;DHT22;29197;44.788;10.366;2023-08-06T05:50:55;21.90;99.90
43607;DHT22;29197;44.788;10.366;2023-08-06T05:53:45;22.00;99.90
43607;DHT22;29197;44.788;10.366;2023-08-06T05:56:34;22.00;99.90
43607;DHT22;29197;44.788;10.366;2023-08-06T05:59:22;22.20;99.90
43607;DHT22;29197;44.788;10.366;2023-08-06T06:02:11;22.20;99.90
43607;DHT22;29197;44.788;10.366;2023-08-06T06:04:59;22.20;99.90
43607;DHT22;29197;44.788;10.366;2023-08-06T06:07:48;22.30;99.90
43607;DHT22;29197;44.788;10.366;2023-08-06T06:10:38;22.40;99.90
43607;DHT22;29197;44.788;10.366;2023-08-06T06:13:27;22.40;99.90
43607;DHT22;29197;44.788;10.366;2023-08-06T06:16:16;22.50;99.90
43607;DHT22;29197;44.788;10.366;2023-08-06T06:19:04;22.70;99.90
43607;DHT22;29197;44.788;10.366;2023-08-06T06:21:53;22.70;99.90
43607;DHT22;29197;44.788;10.366;2023-08-06T06:24:45;22.80;99.90
43607;DHT22;29197;44.788;10.366;2023-08-06T06:27:34;22.90;99.90
43607;DHT22;29197;44.788;10.366;2023-08-06T06:30:23;23.00;99.90
43607;DHT22;29197;44.788;10.366;2023-08-06T06:33:12;23.20;99.90
43607;DHT22;29197;44.788;10.366;2023-08-06T06:36:00;23.20;99.90
43607;DHT22;29197;44.788;10.366;2023-08-06T06:38:50;23.30;99.90
43607;DHT22;29197;44.788;10.366;2023-08-06T06:44:29;23.50;99.90
43607;DHT22;29197;44.788;10.366;2023-08-06T06:47:18;23.70;99.90
43607;DHT22;29197;44.788;10.366;2023-08-06T06:50:07;23.80;99.90
43607;DHT22;29197;44.788;10.366;2023-08-06T06:52:56;23.90;99.90
43607;DHT22;29197;44.788;10.366;2023-08-06T06:55:44;24.00;99.90
43607;DHT22;29197;44.788;10.366;2023-08-06T06:58:36;24.10;99.90
43607;DHT22;29197;44.788;10.366;2023-08-06T07:01:27;24.30;99.90
43607;DHT22;29197;44.788;10.366;2023-08-06T07:04:16;24.40;99.90
43607;DHT22;29197;44.788;10.366;2023-08-06T07:07:04;24.60;99.90
43607;DHT22;29197;44.788;10.366;2023-08-06T07:09:53;24.70;99.90
43607;DHT22;29197;44.788;10.366;2023-08-06T07:12:41;24.80;99.90
43607;DHT22;29197;44.788;10.366;2023-08-06T07:15:30;24.90;99.90
43607;DHT22;29197;44.788;10.366;2023-08-06T07:18:20;25.10;99.90
43607;DHT22;29197;44.788;10.366;2023-08-06T07:21:11;25.20;99.90
43607;DHT22;29197;44.788;10.366;2023-08-06T07:23:59;25.30;99.90
43607;DHT22;29197;44.788;10.366;2023-08-06T07:26:48;25.40;99.90
43607;DHT22;29197;44.788;10.366;2023-08-06T07:29:36;25.50;99.90
43607;DHT22;29197;44.788;10.366;2023-08-06T07:32:26;25.60;99.90
43607;DHT22;29197;44.788;10.366;2023-08-06T07:35:16;25.70;99.90
43607;DHT22;29197;44.788;10.366;2023-08-06T07:38:05;25.80;99.90
43607;DHT22;29197;44.788;10.366;2023-08-06T07:40:54;25.90;99.90
43607;DHT22;29197;44.788;10.366;2023-08-06T07:43:42;26.00;99.90
43607;DHT22;29197;44.788;10.366;2023-08-06T07:46:31;26.10;99.90
43607;DHT22;29197;44.788;10.366;2023-08-06T07:49:22;26.10;99.90
43607;DHT22;29197;44.788;10.366;2023-08-06T07:52:11;26.20;99.90
43607;DHT22;29197;44.788;10.366;2023-08-06T07:55:00;26.20;99.90
43607;DHT22;29197;44.788;10.366;2023-08-06T07:57:52;26.30;99.90
43607;DHT22;29197;44.788;10.366;2023-08-06T08:00:40;26.30;99.90
43607;DHT22;29197;44.788;10.366;2023-08-06T08:03:32;26.30;99.90
43607;DHT22;29197;44.788;10.366;2023-08-06T08:06:21;26.30;99.90
43607;DHT22;29197;44.788;10.366;2023-08-06T08:09:11;26.40;99.90
43607;DHT22;29197;44.788;10.366;2023-08-06T08:12:01;26.30;99.90
43607;DHT22;29197;44.788;10.366;2023-08-06T08:14:50;26.30;99.90
43607;DHT22;29197;44.788;10.366;2023-08-06T08:17:38;26.30;99.90
43607;DHT22;29197;44.788;10.366;2023-08-06T08:20:27;26.30;99.90
43607;DHT22;29197;44.788;10.366;2023-08-06T08:23:19;26.30;99.90
43607;DHT22;29197;44.788;10.366;2023-08-06T08:26:09;26.20;99.90
43607;DHT22;29197;44.788;10.366;2023-08-06T08:28:58;26.20;99.90
43607;DHT22;29197;44.788;10.366;2023-08-06T08:31:46;26.20;99.90
43607;DHT22;29197;44.788;10.366;2023-08-06T08:34:36;26.20;99.90
43607;DHT22;29197;44.788;10.366;2023-08-06T08:37:25;26.10;99.90
43607;DHT22;29197;44.788;10.366;2023-08-06T08:40:14;26.10;99.90
43607;DHT22;29197;44.788;10.366;2023-08-06T08:43:05;26.10;99.90
43607;DHT22;29197;44.788;10.366;2023-08-06T08:45:54;26.20;99.90
43607;DHT22;29197;44.788;10.366;2023-08-06T08:48:46;26.20;99.90
43607;DHT22;29197;44.788;10.366;2023-08-06T08:51:35;26.20;99.90
43607;DHT22;29197;44.788;10.366;2023-08-06T08:54:24;26.30;99.90
43607;DHT22;29197;44.788;10.366;2023-08-06T08:57:13;26.30;99.90
43607;DHT22;29197;44.788;10.366;2023-08-06T09:00:04;26.40;99.90
43607;DHT22;29197;44.788;10.366;2023-08-06T09:02:53;26.40;99.90
43607;DHT22;29197;44.788;10.366;2023-08-06T09:05:44;26.50;99.90
43607;DHT22;29197;44.788;10.366;2023-08-06T09:08:36;26.60;99.90
43607;DHT22;29197;44.788;10.366;2023-08-06T09:11:26;26.60;99.90
43607;DHT22;29197;44.788;10.366;2023-08-06T09:14:15;26.60;99.90
43607;DHT22;29197;44.788;10.366;2023-08-06T09:17:05;26.60;99.90
43607;DHT22;29197;44.788;10.366;2023-08-06T09:48:07;27.80;99.90
43607;DHT22;29197;44.788;10.366;2023-08-06T09:50:57;27.70;99.90
43607;DHT22;29197;44.788;10.366;2023-08-06T09:53:47;27.70;99.90
43607;DHT22;29197;44.788;10.366;2023-08-06T09:56:38;27.70;99.90
43607;DHT22;29197;44.788;10.366;2023-08-06T09:59:27;27.80;99.90
43607;DHT22;29197;44.788;10.366;2023-08-06T10:02:18;27.80;99.90
43607;DHT22;29197;44.788;10.366;2023-08-06T10:05:09;28.00;99.90
43607;DHT22;29197;44.788;10.366;2023-08-06T10:07:59;28.10;99.90
43607;DHT22;29197;44.788;10.366;2023-08-06T10:10:49;28.30;97.60
43607;DHT22;29197;44.788;10.366;2023-08-06T10:13:41;28.30;98.10
43607;DHT22;29197;44.788;10.366;2023-08-06T10:16:30;28.40;97.80
43607;DHT22;29197;44.788;10.366;2023-08-06T10:19:19;28.40;97.30
43607;DHT22;29197;44.788;10.366;2023-08-06T10:22:09;28.50;98.10
43607;DHT22;29197;44.788;10.366;2023-08-06T10:25:02;28.60;96.10
43607;DHT22;29197;44.788;10.366;2023-08-06T10:27:55;28.70;94.50
43607;DHT22;29197;44.788;10.366;2023-08-06T10:30:45;28.70;93.70
43607;DHT22;29197;44.788;10.366;2023-08-06T10:36:30;28.90;91.50
43607;DHT22;29197;44.788;10.366;2023-08-06T10:42:29;29.10;90.90
43607;DHT22;29197;44.788;10.366;2023-08-06T10:45:19;29.20;88.80
43607;DHT22;29197;44.788;10.366;2023-08-06T10:53:48;29.50;84.70
43607;DHT22;29197;44.788;10.366;2023-08-06T10:56:40;29.50;86.00
43607;DHT22;29197;44.788;10.366;2023-08-06T10:59:30;29.60;86.10
43607;DHT22;29197;44.788;10.366;2023-08-06T11:02:20;29.70;86.10
43607;DHT22;29197;44.788;10.366;2023-08-06T11:05:10;29.70;85.00
43607;DHT22;29197;44.788;10.366;2023-08-06T11:07:59;29.80;83.20
43607;DHT22;29197;44.788;10.366;2023-08-06T11:10:47;29.80;83.50
43607;DHT22;29197;44.788;10.366;2023-08-06T11:13:50;29.90;82.60
43607;DHT22;29197;44.788;10.366;2023-08-06T11:16:40;30.00;81.80
43607;DHT22;29197;44.788;10.366;2023-08-06T11:19:29;30.10;82.70
43607;DHT22;29197;44.788;10.366;2023-08-06T11:25:07;30.40;77.40
43607;DHT22;29197;44.788;10.366;2023-08-06T11:27:56;30.30;78.30
43607;DHT22;29197;44.788;10.366;2023-08-06T11:30:44;30.40;79.00
43607;DHT22;29197;44.788;10.366;2023-08-06T11:33:34;30.50;80.40
43607;DHT22;29197;44.788;10.366;2023-08-06T11:36:29;30.60;78.80
43607;DHT22;29197;44.788;10.366;2023-08-06T11:39:18;30.70;79.30
43607;DHT22;29197;44.788;10.366;2023-08-06T11:42:07;30.70;80.40
43607;DHT22;29197;44.788;10.366;2023-08-06T11:44:57;30.90;78.00
43607;DHT22;29197;44.788;10.366;2023-08-06T11:53:29;31.30;99.90
43607;DHT22;29197;44.788;10.366;2023-08-06T12:07:50;32.00;74.90
43607;DHT22;29197;44.788;10.366;2023-08-06T12:10:38;32.00;76.20
43607;DHT22;29197;44.788;10.366;2023-08-06T12:16:16;32.10;76.00
43607;DHT22;29197;44.788;10.366;2023-08-06T12:19:06;32.40;74.90
43607;DHT22;29197;44.788;10.366;2023-08-06T12:21:54;32.40;72.50
43607;DHT22;29197;44.788;10.366;2023-08-06T12:24:45;32.40;73.40
43607;DHT22;29197;44.788;10.366;2023-08-06T12:27:34;32.40;72.40
43607;DHT22;29197;44.788;10.366;2023-08-06T12:30:22;32.40;73.40
43607;DHT22;29197;44.788;10.366;2023-08-06T12:33:11;32.40;71.80
43607;DHT22;29197;44.788;10.366;2023-08-06T12:35:59;32.50;71.80
43607;DHT22;29197;44.788;10.366;2023-08-06T12:38:48;32.70;71.90
43607;DHT22;29197;44.788;10.366;2023-08-06T12:41:38;32.80;72.50
43607;DHT22;29197;44.788;10.366;2023-08-06T12:44:27;32.80;73.20
43607;DHT22;29197;44.788;10.366;2023-08-06T12:47:16;32.80;73.40
43607;DHT22;29197;44.788;10.366;2023-08-06T12:50:05;33.00;71.50
43607;DHT22;29197;44.788;10.366;2023-08-06T12:52:55;33.10;71.50
43607;DHT22;29197;44.788;10.366;2023-08-06T12:58:34;32.60;70.70
43607;DHT22;29197;44.788;10.366;2023-08-06T13:01:23;32.40;72.70
43607;DHT22;29197;44.788;10.366;2023-08-06T13:04:12;32.60;71.20
43607;DHT22;29197;44.788;10.366;2023-08-06T13:07:09;32.70;70.80
43607;DHT22;29197;44.788;10.366;2023-08-06T13:09:57;32.70;71.80
43607;DHT22;29197;44.788;10.366;2023-08-06T13:12:46;32.40;71.50
43607;DHT22;29197;44.788;10.366;2023-08-06T13:15:36;32.50;70.60
43607;DHT22;29197;44.788;10.366;2023-08-06T13:18:24;32.70;70.30
43607;DHT22;29197;44.788;10.366;2023-08-06T13:21:14;32.80;68.20
43607;DHT22;29197;44.788;10.366;2023-08-06T13:24:03;32.90;69.00
43607;DHT22;29197;44.788;10.366;2023-08-06T13:26:52;32.90;68.30
43607;DHT22;29197;44.788;10.366;2023-08-06T13:29:41;33.00;68.20
43607;DHT22;29197;44.788;10.366;2023-08-06T13:32:31;33.00;65.20
43607;DHT22;29197;44.788;10.366;2023-08-06T13:35:21;32.90;65.30
43607;DHT22;29197;44.788;10.366;2023-08-06T13:38:09;33.10;63.80
43607;DHT22;29197;44.788;10.366;2023-08-06T13:40:58;33.20;60.70
43607;DHT22;29197;44.788;10.366;2023-08-06T13:46:35;33.40;59.60
43607;DHT22;29197;44.788;10.366;2023-08-06T13:49:25;33.40;59.20
43607;DHT22;29197;44.788;10.366;2023-08-06T13:52:14;33.30;58.90
43607;DHT22;29197;44.788;10.366;2023-08-06T13:55:09;33.40;59.00
43607;DHT22;29197;44.788;10.366;2023-08-06T13:57:57;33.30;57.30
43607;DHT22;29197;44.788;10.366;2023-08-06T14:00:46;33.20;57.10
43607;DHT22;29197;44.788;10.366;2023-08-06T14:03:34;33.10;56.00
43607;DHT22;29197;44.788;10.366;2023-08-06T14:06:24;33.10;56.20
43607;DHT22;29197;44.788;10.366;2023-08-06T14:09:13;33.10;56.80
43607;DHT22;29197;44.788;10.366;2023-08-06T14:12:06;33.20;53.80
43607;DHT22;29197;44.788;10.366;2023-08-06T14:14:54;33.30;54.80
43607;DHT22;29197;44.788;10.366;2023-08-06T14:17:43;33.30;55.30
43607;DHT22;29197;44.788;10.366;2023-08-06T14:20:32;33.40;55.00
43607;DHT22;29197;44.788;10.366;2023-08-06T14:23:21;33.30;55.80
43607;DHT22;29197;44.788;10.366;2023-08-06T14:26:10;33.40;56.50
43607;DHT22;29197;44.788;10.366;2023-08-06T14:28:59;33.50;56.80
43607;DHT22;29197;44.788;10.366;2023-08-06T14:31:47;33.30;55.30
43607;DHT22;29197;44.788;10.366;2023-08-06T14:34:36;33.30;55.30
43607;DHT22;29197;44.788;10.366;2023-08-06T14:37:24;33.40;54.60
43607;DHT22;29197;44.788;10.366;2023-08-06T14:40:14;33.40;54.50
43607;DHT22;29197;44.788;10.366;2023-08-06T14:43:03;33.20;53.60
43607;DHT22;29197;44.788;10.366;2023-08-06T14:45:51;33.20;54.10
43607;DHT22;29197;44.788;10.366;2023-08-06T14:48:40;33.20;55.10
43607;DHT22;29197;44.788;10.366;2023-08-06T14:51:29;33.30;55.30
43607;DHT22;29197;44.788;10.366;2023-08-06T14:54:18;33.30;55.60
43607;DHT22;29197;44.788;10.366;2023-08-06T14:57:08;33.30;53.80
43607;DHT22;29197;44.788;10.366;2023-08-06T14:59:57;33.30;52.80
43607;DHT22;29197;44.788;10.366;2023-08-06T15:02:46;33.30;53.80
43607;DHT22;29197;44.788;10.366;2023-08-06T15:05:35;33.20;52.50
43607;DHT22;29197;44.788;10.366;2023-08-06T15:08:23;33.00;53.30
43607;DHT22;29197;44.788;10.366;2023-08-06T15:11:13;32.90;52.80
43607;DHT22;29197;44.788;10.366;2023-08-06T15:14:03;32.90;53.30
43607;DHT22;29197;44.788;10.366;2023-08-06T15:16:54;32.80;53.70
43607;DHT22;29197;44.788;10.366;2023-08-06T15:19:44;32.80;53.00
43607;DHT22;29197;44.788;10.366;2023-08-06T15:22:33;32.80;51.50
43607;DHT22;29197;44.788;10.366;2023-08-06T15:25:21;32.80;51.50
43607;DHT22;29197;44.788;10.366;2023-08-06T15:28:10;32.80;52.40
43607;DHT22;29197;44.788;10.366;2023-08-06T15:31:01;32.80;52.80
43607;DHT22;29197;44.788;10.366;2023-08-06T15:33:51;32.70;52.70
43607;DHT22;29197;44.788;10.366;2023-08-06T15:36:41;32.70;52.50
43607;DHT22;29197;44.788;10.366;2023-08-06T15:39:29;32.60;54.00
43607;DHT22;29197;44.788;10.366;2023-08-06T15:42:18;32.50;53.30
43607;DHT22;29197;44.788;10.366;2023-08-06T15:45:08;32.50;52.40
43607;DHT22;29197;44.788;10.366;2023-08-06T15:47:58;32.40;53.60
43607;DHT22;29197;44.788;10.366;2023-08-06T15:50:46;32.30;53.30
43607;DHT22;29197;44.788;10.366;2023-08-06T15:53:35;32.30;53.40
43607;DHT22;29197;44.788;10.366;2023-08-06T15:56:24;32.20;53.20
43607;DHT22;29197;44.788;10.366;2023-08-06T15:59:23;32.20;54.30
43607;DHT22;29197;44.788;10.366;2023-08-06T16:02:11;32.10;54.40
43607;DHT22;29197;44.788;10.366;2023-08-06T16:05:02;32.10;55.10
43607;DHT22;29197;44.788;10.366;2023-08-06T16:07:50;32.10;56.20
43607;DHT22;29197;44.788;10.366;2023-08-06T16:10:40;32.00;56.60
43607;DHT22;29197;44.788;10.366;2023-08-06T16:13:31;32.00;56.40
43607;DHT22;29197;44.788;10.366;2023-08-06T16:16:19;31.90;55.60
43607;DHT22;29197;44.788;10.366;2023-08-06T16:19:09;31.90;55.40
43607;DHT22;29197;44.788;10.366;2023-08-06T16:21:59;31.90;54.90
43607;DHT22;29197;44.788;10.366;2023-08-06T16:24:47;31.80;55.10
43607;DHT22;29197;44.788;10.366;2023-08-06T16:27:36;31.60;56.00
43607;DHT22;29197;44.788;10.366;2023-08-06T16:30:25;31.50;56.30
43607;DHT22;29197;44.788;10.366;2023-08-06T16:33:16;31.50;56.40
43607;DHT22;29197;44.788;10.366;2023-08-06T16:36:05;31.40;56.00
43607;DHT22;29197;44.788;10.366;2023-08-06T16:38:55;31.40;56.20
43607;DHT22;29197;44.788;10.366;2023-08-06T16:41:44;31.30;56.30
43607;DHT22;29197;44.788;10.366;2023-08-06T16:44:32;31.20;57.00
43607;DHT22;29197;44.788;10.366;2023-08-06T16:47:21;31.10;56.40
43607;DHT22;29197;44.788;10.366;2023-08-06T16:50:10;31.00;57.30
43607;DHT22;29197;44.788;10.366;2023-08-06T16:52:58;31.00;57.30
43607;DHT22;29197;44.788;10.366;2023-08-06T16:55:49;31.00;57.70
43607;DHT22;29197;44.788;10.366;2023-08-06T16:58:37;30.90;57.40
43607;DHT22;29197;44.788;10.366;2023-08-06T17:04:15;30.70;58.30
43607;DHT22;29197;44.788;10.366;2023-08-06T17:07:04;30.60;59.20
43607;DHT22;29197;44.788;10.366;2023-08-06T17:09:53;30.50;58.60
43607;DHT22;29197;44.788;10.366;2023-08-06T17:12:43;30.40;58.90
43607;DHT22;29197;44.788;10.366;2023-08-06T17:15:31;30.40;59.50
43607;DHT22;29197;44.788;10.366;2023-08-06T17:18:20;30.30;60.40
43607;DHT22;29197;44.788;10.366;2023-08-06T17:21:09;30.20;60.20
43607;DHT22;29197;44.788;10.366;2023-08-06T17:23:57;30.20;61.20
43607;DHT22;29197;44.788;10.366;2023-08-06T17:26:46;30.10;61.60
43607;DHT22;29197;44.788;10.366;2023-08-06T17:29:36;30.00;62.90
43607;DHT22;29197;44.788;10.366;2023-08-06T17:32:25;29.90;63.30
43607;DHT22;29197;44.788;10.366;2023-08-06T17:35:14;29.80;63.70
43607;DHT22;29197;44.788;10.366;2023-08-06T17:38:03;29.80;63.40
43607;DHT22;29197;44.788;10.366;2023-08-06T17:40:53;29.80;63.50
43607;DHT22;29197;44.788;10.366;2023-08-06T17:43:42;29.70;64.00
43607;DHT22;29197;44.788;10.366;2023-08-06T17:46:32;29.70;64.90
43607;DHT22;29197;44.788;10.366;2023-08-06T17:49:21;29.60;65.00
43607;DHT22;29197;44.788;10.366;2023-08-06T17:52:09;29.50;65.20
43607;DHT22;29197;44.788;10.366;2023-08-06T18:03:26;29.30;64.70
43607;DHT22;29197;44.788;10.366;2023-08-06T18:06:14;29.20;65.20
43607;DHT22;29197;44.788;10.366;2023-08-06T18:09:03;29.10;66.00
43607;DHT22;29197;44.788;10.366;2023-08-06T18:11:52;29.00;66.60
43607;DHT22;29197;44.788;10.366;2023-08-06T18:14:41;28.90;70.00
43607;DHT22;29197;44.788;10.366;2023-08-06T18:17:29;28.90;88.20
43607;DHT22;29197;44.788;10.366;2023-08-06T18:20:20;28.80;88.20
43607;DHT22;29197;44.788;10.366;2023-08-06T18:23:08;28.70;89.10
43607;DHT22;29197;44.788;10.366;2023-08-06T18:25:57;28.70;89.50
43607;DHT22;29197;44.788;10.366;2023-08-06T18:42:53;28.80;98.70
43607;DHT22;29197;44.788;10.366;2023-08-06T18:56:59;28.20;68.40
43607;DHT22;29197;44.788;10.366;2023-08-06T18:59:47;28.10;69.60
43607;DHT22;29197;44.788;10.366;2023-08-06T19:02:36;28.00;70.00
43607;DHT22;29197;44.788;10.366;2023-08-06T19:05:25;27.90;70.20
43607;DHT22;29197;44.788;10.366;2023-08-06T19:08:14;27.80;70.40
43607;DHT22;29197;44.788;10.366;2023-08-06T19:11:04;27.90;70.30
43607;DHT22;29197;44.788;10.366;2023-08-06T19:16:41;27.70;70.80
43607;DHT22;29197;44.788;10.366;2023-08-06T19:19:33;27.40;72.10
43607;DHT22;29197;44.788;10.366;2023-08-06T19:22:21;27.20;72.70